Time;durP1;ratioP1;P1;durP2;ratioP2;P2;SDS_P1;SDS_P2;PMS_P1;PMS_P2;Temp;Humidity;BMP_temperature;BMP_pressure;BME280_temperature;BME280_humidity;BME280_pressure;Samples;Min_cycle;Max_cycle;Signal;HPM_P1;HPM_P2
2022/09/04 00:01:38;;;;;;;;;;;15.80;96.50;;;;;;4318343;28;10000468;-79
2022/09/04 00:04:19;;;;;;;2.22;1.10;;;15.80;96.60;;;;;;5010567;28;20571;-79
2022/09/04 00:07:22;;;;;;;1.20;1.10;;;15.80;96.60;;;;;;5017678;28;20041;-79
2022/09/04 00:09:57;;;;;;;1.75;1.20;;;15.80;96.70;;;;;;5014983;28;20026;-79
2022/09/04 00:12:33;;;;;;;1.50;1.10;;;15.70;96.80;;;;;;5012686;28;20029;-79
2022/09/04 00:15:12;;;;;;;2.35;1.30;;;15.70;97.00;;;;;;5020129;28;20604;-79
2022/09/04 00:18:10;;;;;;;1.25;1.15;;;15.60;97.30;;;;;;5016902;28;20072;-78
2022/09/04 00:20:49;;;;;;;1.38;1.20;;;15.60;97.40;;;;;;4979535;28;20048;-79
2022/09/04 00:23:40;;;;;;;1.23;1.10;;;15.50;97.50;;;;;;5014744;28;20573;-79
2022/09/04 00:26:10;;;;;;;1.00;0.90;;;15.50;97.60;;;;;;5013711;28;20087;-78
2022/09/04 00:28:48;;;;;;;1.17;1.08;;;15.50;97.90;;;;;;5016691;28;20034;-79
2022/09/04 00:31:36;;;;;;;1.10;1.00;;;15.50;98.00;;;;;;5014909;28;20420;-79
2022/09/04 00:34:37;;;;;;;2.90;1.10;;;15.50;98.00;;;;;;5017308;28;20033;-79
2022/09/04 00:37:07;;;;;;;2.00;1.20;;;15.50;98.10;;;;;;5019503;28;20079;-79
2022/09/04 00:39:53;;;;;;;1.70;1.20;;;15.40;98.20;;;;;;5017754;28;20084;-79
2022/09/04 00:42:50;;;;;;;1.20;1.10;;;15.50;98.30;;;;;;5007133;28;20029;-79
2022/09/04 00:45:21;;;;;;;1.75;1.30;;;15.50;98.40;;;;;;5012817;28;20021;-78
2022/09/04 00:48:10;;;;;;;1.83;1.30;;;15.50;98.60;;;;;;5016440;28;20030;-79
2022/09/04 00:50:58;;;;;;;1.35;1.23;;;15.40;98.70;;;;;;5011792;28;20033;-79
2022/09/04 00:53:58;;;;;;;1.88;1.40;;;15.50;98.60;;;;;;5007291;28;20029;-79
2022/09/04 00:56:43;;;;;;;2.03;1.40;;;15.40;98.60;;;;;;5012542;28;20041;-79
2022/09/04 00:59:30;;;;;;;1.92;1.10;;;15.40;98.70;;;;;;5012028;28;20103;-79
2022/09/04 01:02:07;;;;;;;1.35;1.25;;;15.30;98.80;;;;;;5012824;28;20049;-78
2022/09/04 01:04:42;;;;;;;1.75;1.20;;;15.40;98.90;;;;;;5015309;28;20030;-79
2022/09/04 01:07:21;;;;;;;3.03;1.30;;;15.30;99.00;;;;;;5009434;28;20056;-78
2022/09/04 01:10:08;;;;;;;2.70;1.45;;;15.30;99.30;;;;;;5010691;28;20056;-78
2022/09/04 01:12:37;;;;;;;1.63;1.40;;;15.30;99.20;;;;;;5013078;28;20729;-79
2022/09/04 01:15:19;;;;;;;1.27;1.17;;;15.30;99.30;;;;;;5010278;28;20397;-79
2022/09/04 01:17:56;;;;;;;2.58;1.17;;;15.20;99.60;;;;;;5017611;28;20033;-78
2022/09/04 01:20:50;;;;;;;2.35;1.15;;;15.10;99.80;;;;;;5016104;28;20038;-79
2022/09/04 01:24:07;;;;;;;1.70;1.20;;;15.00;99.90;;;;;;5012748;28;20080;-79
2022/09/04 01:26:51;;;;;;;1.27;1.17;;;15.00;99.90;;;;;;5014430;28;20588;-79
2022/09/04 01:29:47;;;;;;;2.28;1.30;;;15.00;99.90;;;;;;5015896;28;20022;-78
2022/09/04 01:32:25;;;;;;;1.55;1.17;;;15.00;99.90;;;;;;5002934;28;20046;-79
2022/09/04 01:35:16;;;;;;;2.80;1.50;;;15.00;99.90;;;;;;5010168;28;20109;-79
2022/09/04 01:38:05;;;;;;;2.30;1.90;;;15.00;99.90;;;;;;5012229;28;20041;-78
2022/09/04 01:40:42;;;;;;;2.78;1.85;;;15.00;99.90;;;;;;5013162;28;20037;-79
2022/09/04 01:43:16;;;;;;;2.08;1.58;;;15.00;99.90;;;;;;5008579;28;20095;-79
2022/09/04 01:45:45;;;;;;;1.77;1.60;;;14.90;99.90;;;;;;5014103;28;20033;-76
2022/09/04 01:48:16;;;;;;;4.57;1.70;;;14.80;99.90;;;;;;5009917;28;20036;-76
2022/09/04 01:50:48;;;;;;;2.22;1.30;;;14.70;99.90;;;;;;5015060;28;20034;-77
2022/09/04 01:53:23;;;;;;;1.67;1.40;;;14.70;99.90;;;;;;5012950;28;20038;-76
2022/09/04 01:55:53;;;;;;;1.55;1.30;;;14.70;99.90;;;;;;5020178;28;20037;-76
2022/09/04 01:58:50;;;;;;;4.53;1.55;;;14.60;99.90;;;;;;5013121;28;20095;-76
2022/09/04 02:01:38;;;;;;;2.67;1.70;;;14.60;99.90;;;;;;5020071;28;20087;-76
2022/09/04 02:04:11;;;;;;;3.17;1.70;;;14.60;99.90;;;;;;5006827;28;20033;-76
2022/09/04 02:06:47;;;;;;;1.83;1.70;;;14.60;99.90;;;;;;5016118;28;20029;-76
2022/09/04 02:09:34;;;;;;;1.88;1.50;;;14.70;99.90;;;;;;5019910;28;20112;-76
2022/09/04 02:12:24;;;;;;;2.72;1.52;;;14.70;99.90;;;;;;5017259;28;20109;-76
2022/09/04 02:15:08;;;;;;;1.70;1.60;;;14.80;99.90;;;;;;5015325;28;20034;-75
2022/09/04 02:18:18;;;;;;;2.00;1.70;;;14.80;99.90;;;;;;5020161;28;20041;-75
2022/09/04 02:20:55;;;;;;;2.60;1.73;;;14.90;99.90;;;;;;4969977;28;20486;-76
2022/09/04 02:23:26;;;;;;;4.35;1.70;;;14.80;99.90;;;;;;4999509;28;20040;-75
2022/09/04 02:26:04;;;;;;;2.10;1.52;;;14.80;99.90;;;;;;5019387;28;20063;-76
2022/09/04 02:28:57;;;;;;;2.05;1.45;;;14.80;99.90;;;;;;5014529;28;20496;-77
2022/09/04 02:31:37;;;;;;;2.58;1.67;;;14.80;99.90;;;;;;5013756;28;20030;-76
2022/09/04 02:34:19;;;;;;;2.08;1.63;;;14.70;99.90;;;;;;5020114;28;20485;-76
2022/09/04 02:37:21;;;;;;;1.60;1.50;;;14.60;99.90;;;;;;5012973;28;20033;-76
2022/09/04 02:40:17;;;;;;;2.65;1.70;;;14.50;99.90;;;;;;5007564;28;20033;-76
2022/09/04 02:42:49;;;;;;;2.65;1.60;;;14.40;99.90;;;;;;5004013;28;20033;-76
2022/09/04 02:45:41;;;;;;;2.88;1.70;;;14.40;99.90;;;;;;5014602;28;20029;-77
2022/09/04 02:48:43;;;;;;;3.78;1.85;;;14.30;99.90;;;;;;5012862;28;20030;-77
2022/09/04 02:51:33;;;;;;;1.90;1.80;;;14.20;99.90;;;;;;5013438;28;20021;-77
2022/09/04 02:54:07;;;;;;;3.22;2.03;;;14.10;99.90;;;;;;5013871;28;20029;-77
2022/09/04 02:56:57;;;;;;;3.10;2.10;;;14.10;99.90;;;;;;5021819;28;20120;-77
2022/09/04 02:59:51;;;;;;;2.58;2.10;;;14.00;99.90;;;;;;5017629;28;20053;-77
2022/09/04 03:02:41;;;;;;;4.50;2.50;;;14.00;99.90;;;;;;5013999;28;20040;-76
2022/09/04 03:05:24;;;;;;;2.97;2.25;;;13.90;99.90;;;;;;5017270;28;20044;-76
2022/09/04 03:07:52;;;;;;;3.63;2.50;;;13.80;99.90;;;;;;5017809;28;20034;-77
2022/09/04 03:10:23;;;;;;;3.13;2.30;;;13.80;99.90;;;;;;5013150;28;20108;-77
2022/09/04 03:13:01;;;;;;;2.28;1.85;;;13.70;99.90;;;;;;5009932;28;20025;-76
2022/09/04 03:15:49;;;;;;;2.85;1.95;;;13.60;99.90;;;;;;5017239;28;20049;-77
2022/09/04 03:18:36;;;;;;;2.30;1.83;;;13.60;99.90;;;;;;5021358;28;20083;-77
2022/09/04 03:21:26;;;;;;;1.77;1.67;;;13.70;99.90;;;;;;5011139;28;20409;-76
2022/09/04 03:24:01;;;;;;;2.00;1.80;;;13.70;99.90;;;;;;5007761;28;20244;-77
2022/09/04 03:26:31;;;;;;;2.53;2.20;;;13.70;99.90;;;;;;5020070;28;20037;-75
2022/09/04 03:29:04;;;;;;;2.47;2.28;;;13.70;99.90;;;;;;5012185;28;20485;-74
2022/09/04 03:31:44;;;;;;;3.13;2.00;;;13.70;99.90;;;;;;5020602;28;20187;-76
2022/09/04 03:34:28;;;;;;;4.38;2.17;;;13.70;99.90;;;;;;5010041;28;20432;-76
2022/09/04 03:37:29;;;;;;;2.80;2.00;;;13.70;99.90;;;;;;5012144;28;20138;-77
2022/09/04 03:40:12;;;;;;;2.33;1.90;;;13.70;99.90;;;;;;5012907;28;20013;-77
2022/09/04 03:43:03;;;;;;;2.20;2.00;;;13.70;99.90;;;;;;5010075;28;20518;-75
2022/09/04 03:45:47;;;;;;;2.92;2.03;;;13.70;99.90;;;;;;5014972;28;20045;-76
2022/09/04 03:48:25;;;;;;;2.10;1.90;;;13.70;99.90;;;;;;5017137;28;20063;-76
2022/09/04 03:51:09;;;;;;;2.97;2.05;;;13.60;99.90;;;;;;5021324;28;20473;-76
2022/09/04 03:53:52;;;;;;;3.97;2.33;;;13.60;99.90;;;;;;5011771;28;20045;-76
2022/09/04 03:56:55;;;;;;;2.20;2.00;;;13.50;99.90;;;;;;5019493;28;20040;-79
2022/09/04 03:59:47;;;;;;;2.50;2.30;;;13.50;99.90;;;;;;5013368;28;20643;-78
2022/09/04 04:02:33;;;;;;;3.33;2.60;;;13.40;99.90;;;;;;5005228;28;20056;-79
2022/09/04 04:05:19;;;;;;;2.38;2.10;;;13.40;99.90;;;;;;5008293;28;20040;-78
2022/09/04 04:08:26;;;;;;;3.28;2.38;;;13.30;99.90;;;;;;5013313;28;20079;-78
2022/09/04 04:11:14;;;;;;;2.33;2.13;;;13.30;99.90;;;;;;4996542;28;20771;-79
2022/09/04 04:14:06;;;;;;;2.40;2.20;;;13.30;99.90;;;;;;5015555;28;20045;-79
2022/09/04 04:16:56;;;;;;;2.90;2.17;;;13.20;99.90;;;;;;5013934;28;20068;-78
2022/09/04 04:19:32;;;;;;;2.85;2.38;;;13.30;99.90;;;;;;5010720;28;20021;-78
2022/09/04 04:22:24;;;;;;;2.70;2.50;;;13.20;99.90;;;;;;5008390;28;20418;-78
2022/09/04 04:25:00;;;;;;;3.47;2.45;;;13.10;99.90;;;;;;4985935;28;20092;-78
2022/09/04 04:27:57;;;;;;;4.10;2.40;;;13.10;99.90;;;;;;5013477;28;20047;-78
2022/09/04 04:30:23;;;;;;;3.58;2.53;;;13.00;99.90;;;;;;5003034;28;20648;-78
2022/09/04 04:33:10;;;;;;;2.60;2.35;;;13.00;99.90;;;;;;5012531;28;20187;-77
2022/09/04 04:35:59;;;;;;;2.50;2.30;;;13.10;99.90;;;;;;5009825;28;20049;-78
2022/09/04 04:38:52;;;;;;;2.30;2.10;;;13.10;99.90;;;;;;5015301;28;20083;-79
2022/09/04 04:41:27;;;;;;;3.20;2.65;;;13.10;99.90;;;;;;5011932;28;20053;-77
2022/09/04 04:44:15;;;;;;;2.60;2.10;;;13.10;99.90;;;;;;5011644;28;20036;-78
2022/09/04 04:47:06;;;;;;;3.72;2.60;;;13.10;99.90;;;;;;5018237;28;20043;-76
2022/09/04 04:49:39;;;;;;;3.05;2.30;;;13.10;99.90;;;;;;5018128;28;20030;-78
2022/09/04 04:52:26;;;;;;;2.65;2.35;;;13.10;99.90;;;;;;5004877;28;20117;-77
2022/09/04 04:55:20;;;;;;;2.53;2.33;;;13.10;99.90;;;;;;5001117;28;20037;-76
2022/09/04 04:58:18;;;;;;;3.38;2.40;;;13.00;99.90;;;;;;5000690;28;20046;-78
2022/09/04 05:01:05;;;;;;;2.97;2.67;;;13.00;99.90;;;;;;5009192;28;20099;-77
2022/09/04 05:03:52;;;;;;;3.03;2.65;;;13.00;99.90;;;;;;5015064;28;20033;-77
2022/09/04 05:06:35;;;;;;;2.92;2.55;;;12.90;99.90;;;;;;5012918;28;20478;-78
2022/09/04 05:09:04;;;;;;;2.42;2.22;;;13.00;99.90;;;;;;5014100;28;20139;-77
2022/09/04 05:11:45;;;;;;;3.20;2.65;;;13.00;99.90;;;;;;5009460;28;20017;-77
2022/09/04 05:14:32;;;;;;;2.80;2.50;;;13.10;99.90;;;;;;5018712;28;20046;-77
2022/09/04 05:17:30;;;;;;;7.25;2.65;;;13.10;99.90;;;;;;5023008;28;20026;-77
2022/09/04 05:20:17;;;;;;;2.63;2.28;;;13.20;99.90;;;;;;5022768;28;20025;-77
2022/09/04 05:23:07;;;;;;;3.10;2.50;;;13.10;99.90;;;;;;5013985;28;20040;-77
2022/09/04 05:25:41;;;;;;;2.53;2.33;;;13.20;99.90;;;;;;5020148;28;20030;-77
2022/09/04 05:28:34;;;;;;;2.60;2.40;;;13.30;99.90;;;;;;5019270;28;20112;-77
2022/09/04 05:31:11;;;;;;;2.83;2.55;;;13.30;99.90;;;;;;5020923;28;20029;-76
2022/09/04 05:33:58;;;;;;;3.88;2.30;;;13.30;99.90;;;;;;5015871;28;20116;-76
2022/09/04 05:36:50;;;;;;;3.03;2.50;;;13.30;99.90;;;;;;5014623;28;20714;-75
2022/09/04 05:39:26;;;;;;;4.32;3.03;;;13.30;99.90;;;;;;5022227;28;20545;-74
2022/09/04 05:42:18;;;;;;;5.50;3.03;;;13.40;99.90;;;;;;5012156;28;20112;-75
2022/09/04 05:45:08;;;;;;;5.07;2.88;;;13.30;99.90;;;;;;5023683;28;20492;-75
2022/09/04 05:48:08;;;;;;;3.33;2.53;;;13.30;99.90;;;;;;5018204;28;20069;-75
2022/09/04 05:51:21;;;;;;;2.70;2.35;;;13.30;99.90;;;;;;5019958;28;20481;-75
2022/09/04 05:54:02;;;;;;;2.70;2.50;;;13.30;99.90;;;;;;5023791;28;20404;-74
2022/09/04 05:56:54;;;;;;;3.50;2.83;;;13.40;99.90;;;;;;5016415;28;20029;-76
2022/09/04 05:59:34;;;;;;;2.95;2.65;;;13.40;99.90;;;;;;4320456;28;10001239;-76
2022/09/04 06:02:05;;;;;;;2.50;2.30;;;13.40;99.90;;;;;;5027118;28;20541;-75
2022/09/04 06:04:49;;;;;;;3.20;2.42;;;13.50;99.90;;;;;;5031369;28;20106;-75
2022/09/04 06:07:59;;;;;;;4.47;2.40;;;13.50;99.90;;;;;;5034217;28;20104;-75
2022/09/04 06:10:49;;;;;;;3.20;2.42;;;13.50;99.90;;;;;;5034343;28;20064;-75
2022/09/04 06:13:40;;;;;;;3.42;2.50;;;13.60;99.90;;;;;;5031263;28;20029;-75
2022/09/04 06:16:34;;;;;;;4.13;2.90;;;13.70;99.90;;;;;;5017635;28;20184;-75
2022/09/04 06:19:20;;;;;;;4.68;2.75;;;13.70;99.90;;;;;;5030993;28;20032;-74
2022/09/04 06:22:03;;;;;;;3.20;2.90;;;13.80;99.90;;;;;;5029091;28;20036;-75
2022/09/04 06:24:44;;;;;;;3.47;3.17;;;13.80;99.90;;;;;;5033959;28;20075;-75
2022/09/04 06:27:29;;;;;;;3.80;3.50;;;13.80;99.90;;;;;;5034039;28;20033;-74
2022/09/04 06:30:09;;;;;;;4.85;3.30;;;13.90;99.90;;;;;;5029510;28;20040;-76
2022/09/04 06:32:54;;;;;;;3.38;3.05;;;13.90;99.90;;;;;;5021787;28;20081;-75
2022/09/04 06:35:50;;;;;;;3.45;3.03;;;14.00;99.90;;;;;;5012570;28;20036;-76
2022/09/04 06:38:45;;;;;;;3.80;2.75;;;14.00;99.90;;;;;;5011595;28;20094;-75
2022/09/04 06:41:34;;;;;;;3.80;3.13;;;14.00;99.90;;;;;;5005525;28;20029;-75
2022/09/04 06:44:06;;;;;;;4.40;3.45;;;14.10;99.90;;;;;;4993702;28;20096;-75
2022/09/04 06:46:32;;;;;;;4.18;2.97;;;14.20;99.90;;;;;;5020378;28;20025;-75
2022/09/04 06:48:59;;;;;;;3.92;3.40;;;14.30;99.90;;;;;;5016954;28;20100;-75
2022/09/04 06:51:42;;;;;;;3.72;3.40;;;14.40;99.90;;;;;;5010666;28;20030;-76
2022/09/04 06:54:29;;;;;;;6.32;3.35;;;14.50;99.90;;;;;;5017850;28;20049;-76
2022/09/04 06:57:01;;;;;;;3.30;2.80;;;14.70;99.90;;;;;;5016004;28;20037;-75
2022/09/04 07:00:18;;;;;;;4.10;2.90;;;14.80;99.90;;;;;;5013619;28;20058;-75
2022/09/04 07:03:05;;;;;;;6.78;3.53;;;15.00;99.90;;;;;;4964740;28;20038;-75
2022/09/04 07:05:46;;;;;;;4.25;3.25;;;15.20;99.90;;;;;;5014404;28;20765;-75
2022/09/04 07:08:36;;;;;;;4.20;2.80;;;15.40;99.90;;;;;;5006662;28;20036;-75
2022/09/04 07:11:28;;;;;;;3.47;2.95;;;15.60;99.90;;;;;;5011456;28;20044;-75
2022/09/04 07:14:28;;;;;;;6.25;3.58;;;15.80;99.90;;;;;;5010271;28;20032;-75
2022/09/04 07:17:30;;;;;;;8.15;4.43;;;15.90;99.90;;;;;;5017985;28;20033;-75
2022/09/04 07:20:18;;;;;;;12.57;6.85;;;16.10;99.90;;;;;;4988694;28;20103;-75
2022/09/04 07:22:57;;;;;;;22.20;10.25;;;16.30;99.90;;;;;;5010370;28;20021;-75
2022/09/04 07:25:28;;;;;;;22.38;9.75;;;16.40;99.90;;;;;;5007481;28;20066;-75
2022/09/04 07:28:46;;;;;;;24.38;11.15;;;16.50;99.90;;;;;;5006990;28;20109;-75
2022/09/04 07:31:28;;;;;;;23.38;10.77;;;16.70;99.90;;;;;;4989510;28;20033;-75
2022/09/04 07:33:59;;;;;;;22.83;11.65;;;16.80;99.90;;;;;;5013232;28;20088;-75
2022/09/04 07:36:39;;;;;;;34.30;14.80;;;16.90;99.90;;;;;;5004956;28;20044;-74
2022/09/04 07:39:19;;;;;;;32.28;13.60;;;17.00;99.90;;;;;;5010192;28;20092;-75
2022/09/04 07:41:52;;;;;;;35.22;14.55;;;17.10;99.90;;;;;;4666330;28;10000204;-75
2022/09/04 07:44:23;;;;;;;29.33;13.77;;;17.20;99.90;;;;;;5011920;28;20033;-75
2022/09/04 07:47:01;;;;;;;35.67;15.80;;;17.40;99.90;;;;;;5005950;28;20542;-75
2022/09/04 07:49:35;;;;;;;31.73;14.70;;;17.60;99.90;;;;;;5016211;28;20112;-75
2022/09/04 07:52:28;;;;;;;33.42;14.85;;;17.70;99.90;;;;;;5008297;28;20033;-74
2022/09/04 07:55:09;;;;;;;31.58;14.15;;;18.00;99.90;;;;;;5004765;28;20057;-75
2022/09/04 07:57:46;;;;;;;30.98;15.57;;;18.20;99.90;;;;;;5009547;28;20036;-75
2022/09/04 08:00:17;;;;;;;30.38;15.25;;;18.40;99.90;;;;;;5014966;28;20104;-75
2022/09/04 08:03:04;;;;;;;30.67;16.52;;;18.60;99.90;;;;;;5017378;28;20029;-76
2022/09/04 08:05:50;;;;;;;30.20;15.77;;;18.80;99.90;;;;;;5003047;28;20116;-75
2022/09/04 08:08:45;;;;;;;24.35;15.18;;;19.00;99.90;;;;;;5011470;28;20056;-75
2022/09/04 08:11:16;;;;;;;27.08;14.63;;;19.20;99.90;;;;;;5011082;28;20482;-74
2022/09/04 08:14:01;;;;;;;23.20;14.38;;;19.20;99.90;;;;;;5013633;28;20033;-76
2022/09/04 08:16:55;;;;;;;20.33;12.35;;;19.30;99.90;;;;;;5014231;28;20030;-78
2022/09/04 08:19:29;;;;;;;26.13;13.40;;;19.40;99.90;;;;;;4997429;28;20181;-75
2022/09/04 08:21:56;;;;;;;19.45;12.00;;;19.50;99.90;;;;;;4665438;28;10000324;-74
2022/09/04 08:24:52;;;;;;;20.92;13.20;;;19.70;99.90;;;;;;5009818;28;20025;-75
2022/09/04 08:27:43;;;;;;;20.25;12.48;;;19.70;99.90;;;;;;5017818;28;20026;-75
2022/09/04 08:30:13;;;;;;;18.05;11.60;;;19.80;99.90;;;;;;5006990;28;20137;-76
2022/09/04 08:32:52;;;;;;;14.98;10.18;;;20.00;99.90;;;;;;5005645;28;20026;-77
2022/09/04 08:35:24;;;;;;;15.25;9.85;;;20.10;99.90;;;;;;5011171;28;20030;-77
2022/09/04 08:38:20;;;;;;;13.98;9.82;;;20.20;99.90;;;;;;5007520;28;20727;-73
2022/09/04 08:40:49;;;;;;;15.20;9.52;;;20.40;99.90;;;;;;5008686;28;20033;-75
2022/09/04 08:43:52;;;;;;;13.95;9.15;;;20.50;99.90;;;;;;5006241;28;20095;-76
2022/09/04 08:46:33;;;;;;;10.38;8.38;;;20.70;99.90;;;;;;5006415;28;20029;-75
2022/09/04 08:49:33;;;;;;;14.77;8.73;;;20.80;99.90;;;;;;5008090;28;20503;-75
2022/09/04 08:52:23;;;;;;;10.50;7.30;;;20.90;99.90;;;;;;5004725;28;20096;-75
2022/09/04 08:55:06;;;;;;;7.70;5.05;;;21.00;99.90;;;;;;5009830;28;20556;-75
2022/09/04 08:57:51;;;;;;;;;;;21.10;99.90;;;;;;5010374;28;20033;-74
2022/09/04 09:00:20;;;;;;;7.03;4.78;;;21.20;99.90;;;;;;5010217;28;20812;-75
2022/09/04 09:03:22;;;;;;;8.43;4.63;;;21.30;99.90;;;;;;5002753;28;20036;-76
2022/09/04 09:06:24;;;;;;;7.13;4.90;;;21.40;99.90;;;;;;5009648;28;20033;-75
2022/09/04 09:09:08;;;;;;;6.07;4.60;;;21.40;99.90;;;;;;4991787;28;20752;-80
2022/09/04 09:11:34;;;;;;;4.80;4.30;;;21.50;99.90;;;;;;5009823;28;20033;-81
2022/09/04 09:14:27;;;;;;;5.80;3.95;;;21.60;99.90;;;;;;5015177;28;20440;-75
2022/09/04 09:17:12;;;;;;;6.32;4.38;;;21.80;99.90;;;;;;5013428;28;20116;-75
2022/09/04 09:19:45;;;;;;;4.05;3.63;;;21.90;99.90;;;;;;5004413;28;20042;-75
2022/09/04 09:22:39;;;;;;;5.32;4.50;;;22.10;99.90;;;;;;5009132;28;20044;-77
2022/09/04 09:25:21;;;;;;;5.75;4.13;;;22.10;99.90;;;;;;5010493;28;20041;-76
2022/09/04 09:28:05;;;;;;;4.70;4.13;;;22.20;99.90;;;;;;5013236;28;20029;-76
2022/09/04 09:30:57;;;;;;;5.97;3.65;;;22.30;99.90;;;;;;5006324;28;20390;-76
2022/09/04 09:33:51;;;;;;;5.00;4.03;;;22.40;99.90;;;;;;5002309;28;20084;-76
2022/09/04 09:36:35;;;;;;;3.72;3.42;;;;;;;;;;5011757;28;20087;-77
2022/09/04 09:39:24;;;;;;;4.88;3.60;;;22.60;99.90;;;;;;5015991;28;20425;-76
2022/09/04 09:42:38;;;;;;;3.90;3.20;;;22.70;99.90;;;;;;5007362;28;20034;-79
2022/09/04 09:45:23;;;;;;;5.30;3.85;;;22.70;99.90;;;;;;4981294;28;20972;-77
2022/09/04 09:48:12;;;;;;;3.53;3.22;;;22.70;99.90;;;;;;5011626;28;20026;-74
2022/09/04 09:50:57;;;;;;;3.17;2.88;;;22.70;99.90;;;;;;5009770;28;20032;-76
2022/09/04 09:53:47;;;;;;;3.97;2.70;;;22.80;99.90;;;;;;5007173;28;20513;-75
2022/09/04 09:56:35;;;;;;;3.58;2.85;;;23.00;99.90;;;;;;5009929;28;20074;-75
2022/09/04 09:59:08;;;;;;;2.50;2.30;;;23.10;99.90;;;;;;5016049;28;20567;-75
2022/09/04 10:01:50;;;;;;;;;;;23.20;99.90;;;;;;5010013;28;20033;-75
2022/09/04 10:04:20;;;;;;;3.55;2.90;;;23.30;99.90;;;;;;5012270;28;19921;-75
2022/09/04 10:07:03;;;;;;;4.38;2.63;;;23.30;99.90;;;;;;5017339;28;20040;-75
2022/09/04 10:09:40;;;;;;;;;;;23.40;99.90;;;;;;5016695;28;20057;-75
2022/09/04 10:12:06;;;;;;;3.85;2.40;;;23.50;99.90;;;;;;5010881;28;19916;-75
2022/09/04 10:14:51;;;;;;;3.42;2.20;;;23.60;99.90;;;;;;5010104;28;20030;-76
2022/09/04 10:17:55;;;;;;;2.40;2.20;;;23.80;99.90;;;;;;5006660;28;20026;-75
2022/09/04 10:20:39;;;;;;;2.85;2.30;;;23.90;99.90;;;;;;4997602;28;20188;-75
2022/09/04 10:23:20;;;;;;;2.25;2.05;;;24.00;99.90;;;;;;5013945;28;20034;-76
2022/09/04 10:26:22;;;;;;;2.47;1.77;;;24.00;99.90;;;;;;5013039;28;20033;-77
2022/09/04 10:29:13;;;;;;;2.47;2.25;;;24.20;99.90;;;;;;5006721;28;20465;-76
2022/09/04 10:32:09;;;;;;;4.95;2.40;;;24.20;99.90;;;;;;5011778;28;20926;-77
2022/09/04 10:35:02;;;;;;;3.35;2.50;;;24.40;99.40;;;;;;5008376;28;20037;-76
2022/09/04 10:38:00;;;;;;;3.35;2.90;;;24.50;99.10;;;;;;5013726;28;20026;-78
2022/09/04 10:40:34;;;;;;;2.33;2.13;;;24.60;98.50;;;;;;5017614;28;20095;-76
2022/09/04 10:43:09;;;;;;;2.00;1.90;;;24.80;98.10;;;;;;5015916;28;20660;-78
2022/09/04 10:46:00;;;;;;;2.45;1.80;;;24.80;98.30;;;;;;5013138;28;20036;-78
2022/09/04 10:48:29;;;;;;;3.78;1.75;;;24.90;98.10;;;;;;5008098;28;20565;-75
2022/09/04 10:51:30;;;;;;;2.65;1.50;;;25.10;97.40;;;;;;5009533;28;20054;-74
2022/09/04 10:54:04;;;;;;;2.08;1.95;;;25.10;95.90;;;;;;5011732;28;20587;-77
2022/09/04 10:56:57;;;;;;;1.60;1.50;;;25.20;96.00;;;;;;5012336;28;20041;-79
2022/09/04 10:59:26;;;;;;;1.88;1.60;;;25.20;95.40;;;;;;5009111;28;20053;-75
2022/09/04 11:02:13;;;;;;;2.70;1.42;;;25.30;95.00;;;;;;5011612;28;20029;-78
2022/09/04 11:05:05;;;;;;;1.77;1.10;;;25.40;94.50;;;;;;5015706;28;20037;-78
2022/09/04 11:08:01;;;;;;;1.23;1.13;;;25.60;93.60;;;;;;5012762;28;20141;-75
2022/09/04 11:10:52;;;;;;;1.63;1.30;;;25.70;93.90;;;;;;5015835;28;20037;-76
2022/09/04 11:13:47;;;;;;;2.20;1.10;;;25.90;93.30;;;;;;5008602;28;20017;-75
2022/09/04 11:16:21;;;;;;;3.47;1.20;;;25.90;92.60;;;;;;5013138;28;20531;-77
2022/09/04 11:19:21;;;;;;;2.67;1.10;;;26.00;91.90;;;;;;5010996;28;20153;-76
2022/09/04 11:21:54;;;;;;;1.67;1.50;;;26.00;92.20;;;;;;5010332;28;20427;-76
2022/09/04 11:25:00;;;;;;;1.48;0.90;;;26.20;92.20;;;;;;5015690;28;20040;-75
2022/09/04 11:28:03;;;;;;;1.40;1.00;;;26.30;89.30;;;;;;5011104;28;20034;-75
2022/09/04 11:30:55;;;;;;;2.05;1.05;;;26.40;88.90;;;;;;5011653;28;20026;-75
2022/09/04 11:33:35;;;;;;;2.17;1.05;;;26.50;89.20;;;;;;5009891;28;20117;-75
2022/09/04 11:36:34;;;;;;;1.50;1.35;;;26.50;89.50;;;;;;5004240;28;20865;-75
2022/09/04 11:39:24;;;;;;;1.25;1.15;;;26.70;89.50;;;;;;4984631;28;20127;-75
2022/09/04 11:42:19;;;;;;;2.55;1.23;;;26.80;88.90;;;;;;5005746;28;20025;-76
2022/09/04 11:44:54;;;;;;;1.60;1.40;;;26.90;88.00;;;;;;5013262;28;20038;-75
2022/09/04 11:47:41;;;;;;;4.18;3.78;;;26.80;87.80;;;;;;5012507;28;20244;-77
2022/09/04 11:50:33;;;;;;;1.52;1.42;;;26.90;87.80;;;;;;5016453;28;20757;-76
2022/09/04 11:53:11;;;;;;;1.95;1.23;;;27.00;86.20;;;;;;5002724;28;20095;-77
2022/09/04 11:55:56;;;;;;;2.40;1.20;;;27.00;85.30;;;;;;5007810;28;20030;-77
2022/09/04 11:59:00;;;;;;;1.35;1.25;;;27.00;85.10;;;;;;5020585;28;20053;-78
2022/09/04 12:01:44;;;;;;;1.55;1.20;;;27.00;84.60;;;;;;4998197;28;20957;-78
2022/09/04 12:05:03;;;;;;;1.65;1.17;;;27.20;84.30;;;;;;5012987;28;20401;-78
2022/09/04 12:07:54;;;;;;;1.27;1.17;;;27.30;83.60;;;;;;4958286;28;20042;-74
2022/09/04 12:10:34;;;;;;;1.95;1.20;;;27.30;82.00;;;;;;5006208;28;20142;-76
2022/09/04 12:13:15;;;;;;;1.30;1.20;;;27.30;81.70;;;;;;5008483;28;20049;-75
2022/09/04 12:16:18;;;;;;;1.60;1.05;;;27.40;80.20;;;;;;5012076;28;20080;-78
2022/09/04 12:19:38;;;;;;;2.92;1.42;;;27.40;79.80;;;;;;5017696;28;20060;-74
2022/09/04 12:22:55;;;;;;;3.58;1.40;;;27.30;79.90;;;;;;4981736;28;20116;-77
2022/09/04 12:25:42;;;;;;;2.72;1.65;;;26.90;80.30;;;;;;4988519;28;20038;-74
2022/09/04 12:28:41;;;;;;;2.72;1.33;;;26.50;81.80;;;;;;5017524;28;20253;-75
2022/09/04 12:31:34;;;;;;;1.58;1.20;;;26.50;81.90;;;;;;5017388;28;20030;-75
2022/09/04 12:34:37;;;;;;;2.55;1.15;;;26.50;81.10;;;;;;5001091;28;20470;-74
2022/09/04 12:37:27;;;;;;;1.95;1.20;;;26.70;81.10;;;;;;5011017;28;20373;-73
2022/09/04 12:40:31;;;;;;;3.28;1.20;;;26.80;79.30;;;;;;5011680;28;20446;-77
2022/09/04 12:43:15;;;;;;;2.05;1.23;;;27.10;78.70;;;;;;5015846;28;20675;-76
2022/09/04 12:45:46;;;;;;;1.63;1.30;;;27.10;78.70;;;;;;5007660;28;20381;-77
2022/09/04 12:48:34;;;;;;;1.75;1.10;;;27.30;79.20;;;;;;5015096;28;20021;-77
2022/09/04 12:51:22;;;;;;;1.20;1.10;;;27.30;77.90;;;;;;5005662;28;20025;-77
2022/09/04 12:54:09;;;;;;;1.02;1.00;;;27.20;76.90;;;;;;5018159;28;20104;-77
2022/09/04 12:56:52;;;;;;;1.27;1.17;;;27.30;77.10;;;;;;5019737;28;20025;-76
2022/09/04 12:59:32;;;;;;;2.47;1.40;;;27.40;76.70;;;;;;5016161;28;20068;-76
2022/09/04 13:02:03;;;;;;;3.03;1.40;;;27.60;77.90;;;;;;5010139;28;20060;-76
2022/09/04 13:05:14;;;;;;;1.38;1.25;;;27.70;75.20;;;;;;5006211;28;20029;-77
2022/09/04 13:07:48;;;;;;;1.17;1.08;;;27.70;72.90;;;;;;5014290;28;20457;-78
2022/09/04 13:10:37;;;;;;;1.58;1.35;;;27.80;73.30;;;;;;5012034;28;20014;-78
2022/09/04 13:13:27;;;;;;;1.88;1.00;;;27.90;72.70;;;;;;5008266;28;20034;-78
2022/09/04 13:16:01;;;;;;;2.53;1.00;;;28.10;73.40;;;;;;5012674;28;20102;-77
2022/09/04 13:18:27;;;;;;;1.30;1.20;;;28.20;70.70;;;;;;5007666;28;20034;-76
2022/09/04 13:21:17;;;;;;;3.13;1.17;;;28.10;71.40;;;;;;4999382;28;20029;-76
2022/09/04 13:23:48;;;;;;;3.28;1.67;;;27.80;72.50;;;;;;5002568;28;20034;-75
2022/09/04 13:26:56;;;;;;;1.45;1.35;;;27.40;73.80;;;;;;5002425;28;20025;-75
2022/09/04 13:29:46;;;;;;;1.88;1.55;;;27.00;74.60;;;;;;4996826;28;20481;-74
2022/09/04 13:32:43;;;;;;;3.38;1.42;;;27.10;75.40;;;;;;5010907;28;20022;-75
2022/09/04 13:35:16;;;;;;;2.65;1.23;;;27.20;74.30;;;;;;5007441;28;20120;-76
2022/09/04 13:37:53;;;;;;;;;;;27.30;73.40;;;;;;5021705;28;20025;-75
2022/09/04 13:40:53;;;;;;;2.80;1.23;;;27.50;72.90;;;;;;5022861;28;20029;-75
2022/09/04 13:43:54;;;;;;;1.45;1.30;;;27.60;72.70;;;;;;5012175;28;20675;-74
2022/09/04 13:46:28;;;;;;;3.45;1.40;;;27.50;71.60;;;;;;5014667;28;20037;-75
2022/09/04 13:49:13;;;;;;;2.83;1.60;;;27.30;72.80;;;;;;5021141;28;20446;-75
2022/09/04 13:51:58;;;;;;;1.60;1.50;;;27.40;72.70;;;;;;5010248;28;20772;-75
2022/09/04 13:54:29;;;;;;;1.90;1.50;;;27.50;71.90;;;;;;5017288;28;20459;-74
2022/09/04 13:57:16;;;;;;;3.47;1.60;;;27.70;72.30;;;;;;5021790;28;20037;-75
2022/09/04 13:59:48;;;;;;;1.58;1.48;;;27.70;71.50;;;;;;5010455;28;20221;-74
2022/09/04 14:02:24;;;;;;;3.10;1.42;;;27.80;71.40;;;;;;5014525;28;20030;-76
2022/09/04 14:05:03;;;;;;;3.20;1.40;;;27.90;70.60;;;;;;5017680;28;20334;-74
2022/09/04 14:07:34;;;;;;;1.42;1.20;;;28.00;69.60;;;;;;5017815;28;20039;-75
2022/09/04 14:10:08;;;;;;;1.58;1.10;;;28.10;68.80;;;;;;5011063;28;20030;-75
2022/09/04 14:12:52;;;;;;;1.35;1.20;;;28.20;68.80;;;;;;5022830;28;20195;-75
2022/09/04 14:15:33;;;;;;;2.08;1.20;;;28.30;68.20;;;;;;5014181;28;20466;-74
2022/09/04 14:18:23;;;;;;;2.35;1.30;;;28.40;67.20;;;;;;5008105;28;20071;-74
2022/09/04 14:20:58;;;;;;;2.05;1.30;;;28.40;67.10;;;;;;5009586;28;20033;-74